sensor_id;sensor_type;location;lat;lon;timestamp;P1;durP1;ratioP1;P2;durP2;ratioP2
49123;SDS011;48506;48.202;16.274;2024-02-21T00:00:53;15.73;;;3.75;;
49123;SDS011;48506;48.202;16.274;2024-02-21T00:03:19;7.47;;;2.92;;
49123;SDS011;48506;48.202;16.274;2024-02-21T00:05:45;11.98;;;4.18;;
49123;SDS011;48506;48.202;16.274;2024-02-21T00:08:11;7.45;;;2.95;;
49123;SDS011;48506;48.202;16.274;2024-02-21T00:10:37;11.82;;;3.92;;
49123;SDS011;48506;48.202;16.274;2024-02-21T00:13:03;17.38;;;3.72;;
49123;SDS011;48506;48.202;16.274;2024-02-21T00:15:29;8.57;;;2.90;;
49123;SDS011;48506;48.202;16.274;2024-02-21T00:17:55;11.82;;;3.83;;
49123;SDS011;48506;48.202;16.274;2024-02-21T00:20:20;9.23;;;3.53;;
49123;SDS011;48506;48.202;16.274;2024-02-21T00:22:46;7.85;;;3.13;;
49123;SDS011;48506;48.202;16.274;2024-02-21T00:25:12;12.63;;;3.40;;
49123;SDS011;48506;48.202;16.274;2024-02-21T00:27:38;8.88;;;3.25;;
49123;SDS011;48506;48.202;16.274;2024-02-21T00:30:05;17.88;;;4.43;;
49123;SDS011;48506;48.202;16.274;2024-02-21T00:32:31;10.05;;;3.42;;
49123;SDS011;48506;48.202;16.274;2024-02-21T00:35:00;10.93;;;2.72;;
49123;SDS011;48506;48.202;16.274;2024-02-21T00:37:26;9.18;;;2.90;;
49123;SDS011;48506;48.202;16.274;2024-02-21T00:39:53;10.88;;;3.30;;
49123;SDS011;48506;48.202;16.274;2024-02-21T00:42:19;8.65;;;3.35;;
49123;SDS011;48506;48.202;16.274;2024-02-21T00:44:46;9.80;;;3.05;;
49123;SDS011;48506;48.202;16.274;2024-02-21T00:47:12;11.95;;;3.17;;
49123;SDS011;48506;48.202;16.274;2024-02-21T00:49:38;6.82;;;3.05;;
49123;SDS011;48506;48.202;16.274;2024-02-21T00:52:04;11.98;;;3.30;;
49123;SDS011;48506;48.202;16.274;2024-02-21T00:54:30;7.82;;;3.03;;
49123;SDS011;48506;48.202;16.274;2024-02-21T00:56:56;12.13;;;3.75;;
49123;SDS011;48506;48.202;16.274;2024-02-21T00:59:22;12.63;;;2.85;;
49123;SDS011;48506;48.202;16.274;2024-02-21T01:01:47;8.68;;;3.00;;
49123;SDS011;48506;48.202;16.274;2024-02-21T01:04:13;17.35;;;4.70;;
49123;SDS011;48506;48.202;16.274;2024-02-21T01:06:39;13.57;;;3.55;;
49123;SDS011;48506;48.202;16.274;2024-02-21T01:09:08;13.48;;;2.78;;
49123;SDS011;48506;48.202;16.274;2024-02-21T01:11:33;7.38;;;2.65;;
49123;SDS011;48506;48.202;16.274;2024-02-21T01:13:59;11.52;;;3.38;;
49123;SDS011;48506;48.202;16.274;2024-02-21T01:16:25;9.63;;;2.80;;
49123;SDS011;48506;48.202;16.274;2024-02-21T01:18:51;14.48;;;3.55;;
49123;SDS011;48506;48.202;16.274;2024-02-21T01:21:17;9.50;;;3.15;;
49123;SDS011;48506;48.202;16.274;2024-02-21T01:23:43;12.18;;;3.15;;
49123;SDS011;48506;48.202;16.274;2024-02-21T01:26:09;9.73;;;3.60;;
49123;SDS011;48506;48.202;16.274;2024-02-21T01:28:38;10.60;;;3.38;;
49123;SDS011;48506;48.202;16.274;2024-02-21T01:31:04;13.07;;;4.57;;
49123;SDS011;48506;48.202;16.274;2024-02-21T01:33:30;10.15;;;3.65;;
49123;SDS011;48506;48.202;16.274;2024-02-21T01:36:03;9.43;;;3.25;;
49123;SDS011;48506;48.202;16.274;2024-02-21T01:38:29;16.38;;;3.10;;
49123;SDS011;48506;48.202;16.274;2024-02-21T01:40:55;11.63;;;3.60;;
49123;SDS011;48506;48.202;16.274;2024-02-21T01:43:22;11.82;;;3.55;;
49123;SDS011;48506;48.202;16.274;2024-02-21T01:45:51;8.52;;;3.10;;
49123;SDS011;48506;48.202;16.274;2024-02-21T01:48:19;11.68;;;3.85;;
49123;SDS011;48506;48.202;16.274;2024-02-21T01:50:47;7.28;;;3.10;;
49123;SDS011;48506;48.202;16.274;2024-02-21T01:53:30;13.75;;;3.72;;
49123;SDS011;48506;48.202;16.274;2024-02-21T01:55:59;10.07;;;3.20;;
49123;SDS011;48506;48.202;16.274;2024-02-21T01:58:26;15.65;;;3.45;;
49123;SDS011;48506;48.202;16.274;2024-02-21T02:00:54;7.40;;;2.55;;
49123;SDS011;48506;48.202;16.274;2024-02-21T02:03:23;9.95;;;3.40;;
49123;SDS011;48506;48.202;16.274;2024-02-21T02:05:50;8.82;;;3.85;;
49123;SDS011;48506;48.202;16.274;2024-02-21T02:08:17;10.55;;;3.40;;
49123;SDS011;48506;48.202;16.274;2024-02-21T02:10:45;10.85;;;3.50;;
49123;SDS011;48506;48.202;16.274;2024-02-21T02:13:11;9.32;;;3.28;;
49123;SDS011;48506;48.202;16.274;2024-02-21T02:18:13;15.57;;;3.17;;
49123;SDS011;48506;48.202;16.274;2024-02-21T02:20:40;10.85;;;3.30;;
49123;SDS011;48506;48.202;16.274;2024-02-21T02:26:10;9.95;;;2.75;;
49123;SDS011;48506;48.202;16.274;2024-02-21T02:28:36;7.43;;;2.92;;
49123;SDS011;48506;48.202;16.274;2024-02-21T02:31:02;9.18;;;3.55;;
49123;SDS011;48506;48.202;16.274;2024-02-21T02:33:28;10.38;;;3.17;;
49123;SDS011;48506;48.202;16.274;2024-02-21T02:35:54;7.53;;;2.55;;
49123;SDS011;48506;48.202;16.274;2024-02-21T02:38:19;11.20;;;4.13;;
49123;SDS011;48506;48.202;16.274;2024-02-21T02:40:45;8.55;;;3.08;;
49123;SDS011;48506;48.202;16.274;2024-02-21T02:43:11;10.10;;;2.80;;
49123;SDS011;48506;48.202;16.274;2024-02-21T02:45:37;13.30;;;3.05;;
49123;SDS011;48506;48.202;16.274;2024-02-21T02:48:03;11.40;;;3.38;;
49123;SDS011;48506;48.202;16.274;2024-02-21T02:50:29;9.50;;;2.78;;
49123;SDS011;48506;48.202;16.274;2024-02-21T02:52:55;12.35;;;2.97;;
49123;SDS011;48506;48.202;16.274;2024-02-21T02:55:21;11.98;;;4.13;;
49123;SDS011;48506;48.202;16.274;2024-02-21T02:57:47;9.93;;;2.85;;
49123;SDS011;48506;48.202;16.274;2024-02-21T03:00:13;9.02;;;3.17;;
49123;SDS011;48506;48.202;16.274;2024-02-21T03:02:41;11.13;;;2.97;;
49123;SDS011;48506;48.202;16.274;2024-02-21T03:05:12;7.90;;;2.63;;
49123;SDS011;48506;48.202;16.274;2024-02-21T03:07:40;8.20;;;2.85;;
49123;SDS011;48506;48.202;16.274;2024-02-21T03:10:06;12.63;;;3.53;;
49123;SDS011;48506;48.202;16.274;2024-02-21T03:12:32;9.98;;;2.88;;
49123;SDS011;48506;48.202;16.274;2024-02-21T03:14:58;9.48;;;3.75;;
49123;SDS011;48506;48.202;16.274;2024-02-21T03:17:24;7.97;;;3.03;;
49123;SDS011;48506;48.202;16.274;2024-02-21T03:19:52;12.82;;;3.50;;
49123;SDS011;48506;48.202;16.274;2024-02-21T03:22:18;7.38;;;3.05;;
49123;SDS011;48506;48.202;16.274;2024-02-21T03:24:44;14.02;;;4.60;;
49123;SDS011;48506;48.202;16.274;2024-02-21T03:27:10;11.93;;;3.58;;
49123;SDS011;48506;48.202;16.274;2024-02-21T03:29:36;13.23;;;4.80;;
49123;SDS011;48506;48.202;16.274;2024-02-21T03:32:01;10.05;;;3.28;;
49123;SDS011;48506;48.202;16.274;2024-02-21T03:34:27;6.07;;;2.92;;
49123;SDS011;48506;48.202;16.274;2024-02-21T03:36:53;11.38;;;2.72;;
49123;SDS011;48506;48.202;16.274;2024-02-21T03:39:19;17.88;;;4.32;;
49123;SDS011;48506;48.202;16.274;2024-02-21T03:41:46;11.02;;;3.60;;
49123;SDS011;48506;48.202;16.274;2024-02-21T03:44:13;11.88;;;4.07;;
49123;SDS011;48506;48.202;16.274;2024-02-21T03:46:38;11.27;;;3.38;;
49123;SDS011;48506;48.202;16.274;2024-02-21T03:49:04;9.27;;;3.28;;
49123;SDS011;48506;48.202;16.274;2024-02-21T03:51:30;15.50;;;3.10;;
49123;SDS011;48506;48.202;16.274;2024-02-21T03:53:56;12.85;;;3.53;;
49123;SDS011;48506;48.202;16.274;2024-02-21T03:56:22;8.55;;;3.20;;
49123;SDS011;48506;48.202;16.274;2024-02-21T03:58:48;12.40;;;2.90;;
49123;SDS011;48506;48.202;16.274;2024-02-21T04:01:15;8.15;;;3.00;;
49123;SDS011;48506;48.202;16.274;2024-02-21T04:03:41;12.77;;;4.03;;
49123;SDS011;48506;48.202;16.274;2024-02-21T04:06:08;8.55;;;2.60;;
49123;SDS011;48506;48.202;16.274;2024-02-21T04:08:35;10.00;;;4.47;;
49123;SDS011;48506;48.202;16.274;2024-02-21T04:11:00;17.67;;;3.60;;
49123;SDS011;48506;48.202;16.274;2024-02-21T04:13:26;12.60;;;3.22;;
49123;SDS011;48506;48.202;16.274;2024-02-21T04:15:52;7.18;;;2.95;;
49123;SDS011;48506;48.202;16.274;2024-02-21T04:18:18;12.20;;;3.75;;
49123;SDS011;48506;48.202;16.274;2024-02-21T04:20:44;6.85;;;3.40;;
49123;SDS011;48506;48.202;16.274;2024-02-21T04:23:10;9.75;;;3.83;;
49123;SDS011;48506;48.202;16.274;2024-02-21T04:25:36;12.60;;;3.88;;
49123;SDS011;48506;48.202;16.274;2024-02-21T04:28:02;15.52;;;3.75;;
49123;SDS011;48506;48.202;16.274;2024-02-21T04:30:28;21.00;;;5.40;;
49123;SDS011;48506;48.202;16.274;2024-02-21T04:32:54;11.25;;;4.28;;
49123;SDS011;48506;48.202;16.274;2024-02-21T04:35:20;11.05;;;3.72;;
49123;SDS011;48506;48.202;16.274;2024-02-21T04:37:46;15.30;;;4.75;;
49123;SDS011;48506;48.202;16.274;2024-02-21T04:40:12;9.13;;;3.55;;
49123;SDS011;48506;48.202;16.274;2024-02-21T04:42:39;16.45;;;4.57;;
49123;SDS011;48506;48.202;16.274;2024-02-21T04:45:05;9.98;;;3.50;;
49123;SDS011;48506;48.202;16.274;2024-02-21T04:47:31;8.85;;;3.28;;
49123;SDS011;48506;48.202;16.274;2024-02-21T04:49:57;12.45;;;3.50;;
49123;SDS011;48506;48.202;16.274;2024-02-21T04:52:23;9.50;;;2.97;;
49123;SDS011;48506;48.202;16.274;2024-02-21T04:54:49;6.95;;;3.00;;
49123;SDS011;48506;48.202;16.274;2024-02-21T04:57:15;10.98;;;3.42;;
49123;SDS011;48506;48.202;16.274;2024-02-21T04:59:45;10.93;;;3.55;;
49123;SDS011;48506;48.202;16.274;2024-02-21T05:02:13;12.05;;;3.03;;
49123;SDS011;48506;48.202;16.274;2024-02-21T05:04:39;6.28;;;2.67;;
49123;SDS011;48506;48.202;16.274;2024-02-21T05:07:07;8.35;;;2.45;;
49123;SDS011;48506;48.202;16.274;2024-02-21T05:09:33;10.00;;;2.95;;
49123;SDS011;48506;48.202;16.274;2024-02-21T05:11:58;5.72;;;2.63;;
49123;SDS011;48506;48.202;16.274;2024-02-21T05:14:25;7.15;;;2.42;;
49123;SDS011;48506;48.202;16.274;2024-02-21T05:16:54;5.65;;;2.35;;
49123;SDS011;48506;48.202;16.274;2024-02-21T05:19:20;14.07;;;3.17;;
49123;SDS011;48506;48.202;16.274;2024-02-21T05:21:46;11.27;;;3.85;;
49123;SDS011;48506;48.202;16.274;2024-02-21T05:24:12;8.93;;;2.83;;
49123;SDS011;48506;48.202;16.274;2024-02-21T05:26:37;10.30;;;3.15;;
49123;SDS011;48506;48.202;16.274;2024-02-21T05:29:03;8.23;;;2.85;;
49123;SDS011;48506;48.202;16.274;2024-02-21T05:32:14;8.70;;;2.50;;
49123;SDS011;48506;48.202;16.274;2024-02-21T05:34:15;7.65;;;2.25;;
49123;SDS011;48506;48.202;16.274;2024-02-21T05:36:42;8.45;;;2.75;;
49123;SDS011;48506;48.202;16.274;2024-02-21T05:39:08;10.00;;;2.95;;
49123;SDS011;48506;48.202;16.274;2024-02-21T05:41:34;6.45;;;2.17;;
49123;SDS011;48506;48.202;16.274;2024-02-21T05:44:00;8.68;;;2.80;;
49123;SDS011;48506;48.202;16.274;2024-02-21T05:46:26;6.88;;;2.67;;
49123;SDS011;48506;48.202;16.274;2024-02-21T05:48:51;9.57;;;3.08;;
49123;SDS011;48506;48.202;16.274;2024-02-21T05:51:17;10.38;;;3.38;;
49123;SDS011;48506;48.202;16.274;2024-02-21T05:53:43;11.85;;;2.67;;
49123;SDS011;48506;48.202;16.274;2024-02-21T05:56:12;6.75;;;2.38;;
49123;SDS011;48506;48.202;16.274;2024-02-21T05:58:39;9.68;;;2.90;;
49123;SDS011;48506;48.202;16.274;2024-02-21T06:01:05;6.13;;;2.33;;
49123;SDS011;48506;48.202;16.274;2024-02-21T06:03:35;9.73;;;2.20;;
49123;SDS011;48506;48.202;16.274;2024-02-21T06:06:04;7.63;;;2.73;;
49123;SDS011;48506;48.202;16.274;2024-02-21T06:08:30;10.65;;;2.67;;
49123;SDS011;48506;48.202;16.274;2024-02-21T06:10:56;9.88;;;2.60;;
49123;SDS011;48506;48.202;16.274;2024-02-21T06:13:25;6.65;;;2.35;;
49123;SDS011;48506;48.202;16.274;2024-02-21T06:15:51;5.90;;;2.83;;
49123;SDS011;48506;48.202;16.274;2024-02-21T06:18:17;6.47;;;2.55;;
49123;SDS011;48506;48.202;16.274;2024-02-21T06:20:44;5.35;;;2.50;;
49123;SDS011;48506;48.202;16.274;2024-02-21T06:23:11;8.50;;;2.58;;
49123;SDS011;48506;48.202;16.274;2024-02-21T06:25:38;7.50;;;2.45;;
49123;SDS011;48506;48.202;16.274;2024-02-21T06:28:05;8.80;;;3.00;;
49123;SDS011;48506;48.202;16.274;2024-02-21T06:30:31;4.25;;;2.15;;
49123;SDS011;48506;48.202;16.274;2024-02-21T06:32:57;8.18;;;3.20;;
49123;SDS011;48506;48.202;16.274;2024-02-21T06:35:24;8.07;;;2.42;;
49123;SDS011;48506;48.202;16.274;2024-02-21T06:37:53;9.27;;;2.20;;
49123;SDS011;48506;48.202;16.274;2024-02-21T06:40:22;8.27;;;2.22;;
49123;SDS011;48506;48.202;16.274;2024-02-21T06:42:49;4.95;;;2.63;;
49123;SDS011;48506;48.202;16.274;2024-02-21T06:45:16;9.25;;;2.00;;
49123;SDS011;48506;48.202;16.274;2024-02-21T06:47:42;7.35;;;2.47;;
49123;SDS011;48506;48.202;16.274;2024-02-21T06:50:08;7.13;;;2.53;;
49123;SDS011;48506;48.202;16.274;2024-02-21T06:52:35;6.55;;;2.30;;
49123;SDS011;48506;48.202;16.274;2024-02-21T06:55:01;7.00;;;2.42;;
49123;SDS011;48506;48.202;16.274;2024-02-21T06:57:30;12.20;;;3.15;;
49123;SDS011;48506;48.202;16.274;2024-02-21T06:59:56;7.50;;;3.47;;
49123;SDS011;48506;48.202;16.274;2024-02-21T07:02:22;6.55;;;2.33;;
49123;SDS011;48506;48.202;16.274;2024-02-21T07:04:48;13.60;;;3.58;;
49123;SDS011;48506;48.202;16.274;2024-02-21T07:07:14;8.55;;;2.10;;
49123;SDS011;48506;48.202;16.274;2024-02-21T07:09:40;5.70;;;2.03;;
49123;SDS011;48506;48.202;16.274;2024-02-21T07:12:07;5.82;;;1.98;;
49123;SDS011;48506;48.202;16.274;2024-02-21T07:14:33;7.90;;;2.40;;
49123;SDS011;48506;48.202;16.274;2024-02-21T07:17:01;6.10;;;2.00;;
49123;SDS011;48506;48.202;16.274;2024-02-21T07:19:27;11.93;;;2.55;;
49123;SDS011;48506;48.202;16.274;2024-02-21T07:21:53;5.90;;;2.10;;
49123;SDS011;48506;48.202;16.274;2024-02-21T07:24:18;6.75;;;2.50;;
49123;SDS011;48506;48.202;16.274;2024-02-21T07:26:44;9.43;;;2.60;;
49123;SDS011;48506;48.202;16.274;2024-02-21T07:29:10;6.85;;;2.03;;
49123;SDS011;48506;48.202;16.274;2024-02-21T07:31:42;4.80;;;2.65;;
49123;SDS011;48506;48.202;16.274;2024-02-21T07:34:09;7.15;;;2.40;;
49123;SDS011;48506;48.202;16.274;2024-02-21T07:36:35;3.85;;;1.92;;
49123;SDS011;48506;48.202;16.274;2024-02-21T07:39:05;4.85;;;2.17;;
49123;SDS011;48506;48.202;16.274;2024-02-21T07:41:31;8.25;;;2.42;;
49123;SDS011;48506;48.202;16.274;2024-02-21T07:43:57;10.45;;;3.28;;
49123;SDS011;48506;48.202;16.274;2024-02-21T07:46:23;6.03;;;2.10;;
49123;SDS011;48506;48.202;16.274;2024-02-21T07:48:49;8.68;;;1.85;;
49123;SDS011;48506;48.202;16.274;2024-02-21T07:51:16;6.22;;;1.80;;
49123;SDS011;48506;48.202;16.274;2024-02-21T07:53:43;9.05;;;2.88;;
49123;SDS011;48506;48.202;16.274;2024-02-21T07:56:13;7.22;;;2.47;;
49123;SDS011;48506;48.202;16.274;2024-02-21T07:58:40;10.40;;;2.35;;
49123;SDS011;48506;48.202;16.274;2024-02-21T08:01:06;11.15;;;2.25;;
49123;SDS011;48506;48.202;16.274;2024-02-21T08:03:33;9.13;;;2.22;;
49123;SDS011;48506;48.202;16.274;2024-02-21T08:06:00;14.00;;;2.28;;
49123;SDS011;48506;48.202;16.274;2024-02-21T08:08:26;3.35;;;1.52;;
49123;SDS011;48506;48.202;16.274;2024-02-21T08:10:52;7.85;;;2.05;;
49123;SDS011;48506;48.202;16.274;2024-02-21T08:13:18;2.70;;;1.35;;
49123;SDS011;48506;48.202;16.274;2024-02-21T08:15:44;7.80;;;1.50;;
49123;SDS011;48506;48.202;16.274;2024-02-21T08:18:10;5.45;;;2.33;;
49123;SDS011;48506;48.202;16.274;2024-02-21T08:20:36;11.38;;;1.83;;
49123;SDS011;48506;48.202;16.274;2024-02-21T08:23:01;8.35;;;2.47;;
49123;SDS011;48506;48.202;16.274;2024-02-21T08:25:27;6.75;;;1.30;;
49123;SDS011;48506;48.202;16.274;2024-02-21T08:27:57;4.13;;;1.35;;
49123;SDS011;48506;48.202;16.274;2024-02-21T08:30:24;5.07;;;1.20;;
49123;SDS011;48506;48.202;16.274;2024-02-21T08:32:50;3.65;;;1.25;;
49123;SDS011;48506;48.202;16.274;2024-02-21T08:35:17;8.82;;;2.20;;
49123;SDS011;48506;48.202;16.274;2024-02-21T08:37:44;5.25;;;1.67;;
49123;SDS011;48506;48.202;16.274;2024-02-21T08:40:13;3.53;;;1.63;;
49123;SDS011;48506;48.202;16.274;2024-02-21T08:42:42;10.25;;;1.73;;
49123;SDS011;48506;48.202;16.274;2024-02-21T08:45:08;7.20;;;2.50;;
49123;SDS011;48506;48.202;16.274;2024-02-21T08:47:35;9.85;;;1.90;;
49123;SDS011;48506;48.202;16.274;2024-02-21T08:50:01;6.35;;;2.10;;
49123;SDS011;48506;48.202;16.274;2024-02-21T08:52:28;6.57;;;1.35;;
49123;SDS011;48506;48.202;16.274;2024-02-21T08:54:53;7.70;;;1.50;;
49123;SDS011;48506;48.202;16.274;2024-02-21T08:57:20;4.15;;;1.60;;
49123;SDS011;48506;48.202;16.274;2024-02-21T08:59:46;5.55;;;1.70;;
49123;SDS011;48506;48.202;16.274;2024-02-21T09:02:12;7.40;;;2.03;;
49123;SDS011;48506;48.202;16.274;2024-02-21T09:04:41;13.60;;;2.20;;
49123;SDS011;48506;48.202;16.274;2024-02-21T09:07:07;10.63;;;1.90;;
49123;SDS011;48506;48.202;16.274;2024-02-21T09:09:33;10.35;;;2.10;;
49123;SDS011;48506;48.202;16.274;2024-02-21T09:11:59;5.65;;;1.95;;
49123;SDS011;48506;48.202;16.274;2024-02-21T09:14:34;4.25;;;1.60;;
49123;SDS011;48506;48.202;16.274;2024-02-21T09:17:03;6.25;;;1.77;;
49123;SDS011;48506;48.202;16.274;2024-02-21T09:19:29;9.73;;;2.58;;
49123;SDS011;48506;48.202;16.274;2024-02-21T09:21:55;5.97;;;1.75;;
49123;SDS011;48506;48.202;16.274;2024-02-21T09:24:21;5.10;;;1.67;;
49123;SDS011;48506;48.202;16.274;2024-02-21T09:26:47;5.90;;;1.88;;
49123;SDS011;48506;48.202;16.274;2024-02-21T09:29:12;4.35;;;1.85;;
49123;SDS011;48506;48.202;16.274;2024-02-21T09:31:38;6.63;;;1.50;;
49123;SDS011;48506;48.202;16.274;2024-02-21T09:34:04;5.15;;;1.33;;
49123;SDS011;48506;48.202;16.274;2024-02-21T09:36:30;9.00;;;2.08;;
49123;SDS011;48506;48.202;16.274;2024-02-21T09:38:56;4.78;;;1.40;;
49123;SDS011;48506;48.202;16.274;2024-02-21T09:41:25;4.38;;;1.50;;
49123;SDS011;48506;48.202;16.274;2024-02-21T09:43:55;8.77;;;2.10;;
49123;SDS011;48506;48.202;16.274;2024-02-21T09:49:30;11.65;;;2.33;;
49123;SDS011;48506;48.202;16.274;2024-02-21T09:52:06;6.28;;;1.48;;
49123;SDS011;48506;48.202;16.274;2024-02-21T09:54:33;6.97;;;1.25;;
49123;SDS011;48506;48.202;16.274;2024-02-21T09:56:59;11.25;;;1.98;;
49123;SDS011;48506;48.202;16.274;2024-02-21T09:59:30;3.92;;;1.45;;
49123;SDS011;48506;48.202;16.274;2024-02-21T10:01:57;6.97;;;2.35;;
49123;SDS011;48506;48.202;16.274;2024-02-21T10:04:27;5.53;;;1.40;;
49123;SDS011;48506;48.202;16.274;2024-02-21T10:06:54;9.73;;;2.08;;
49123;SDS011;48506;48.202;16.274;2024-02-21T10:09:20;6.22;;;2.17;;
49123;SDS011;48506;48.202;16.274;2024-02-21T10:11:53;6.30;;;1.60;;
49123;SDS011;48506;48.202;16.274;2024-02-21T10:14:19;7.15;;;1.88;;
49123;SDS011;48506;48.202;16.274;2024-02-21T10:16:48;6.65;;;1.50;;
49123;SDS011;48506;48.202;16.274;2024-02-21T10:19:23;7.78;;;1.70;;
49123;SDS011;48506;48.202;16.274;2024-02-21T10:22:02;6.50;;;2.38;;
49123;SDS011;48506;48.202;16.274;2024-02-21T10:24:30;7.47;;;1.70;;
49123;SDS011;48506;48.202;16.274;2024-02-21T10:27:04;4.93;;;1.92;;
49123;SDS011;48506;48.202;16.274;2024-02-21T10:29:33;10.20;;;1.98;;
49123;SDS011;48506;48.202;16.274;2024-02-21T10:32:10;7.63;;;2.28;;
49123;SDS011;48506;48.202;16.274;2024-02-21T10:34:39;4.88;;;1.40;;
49123;SDS011;48506;48.202;16.274;2024-02-21T10:37:07;8.48;;;1.60;;
49123;SDS011;48506;48.202;16.274;2024-02-21T10:39:34;6.18;;;1.50;;
49123;SDS011;48506;48.202;16.274;2024-02-21T10:42:04;5.13;;;1.85;;
49123;SDS011;48506;48.202;16.274;2024-02-21T10:44:36;5.10;;;1.80;;
49123;SDS011;48506;48.202;16.274;2024-02-21T10:47:08;8.10;;;2.03;;
49123;SDS011;48506;48.202;16.274;2024-02-21T10:49:39;9.82;;;2.15;;
49123;SDS011;48506;48.202;16.274;2024-02-21T10:55:15;11.45;;;2.85;;
49123;SDS011;48506;48.202;16.274;2024-02-21T10:57:48;7.47;;;1.65;;
49123;SDS011;48506;48.202;16.274;2024-02-21T11:00:16;5.95;;;1.90;;
49123;SDS011;48506;48.202;16.274;2024-02-21T11:02:44;6.75;;;2.20;;
49123;SDS011;48506;48.202;16.274;2024-02-21T11:05:12;8.15;;;1.60;;
49123;SDS011;48506;48.202;16.274;2024-02-21T11:07:40;6.90;;;1.80;;
49123;SDS011;48506;48.202;16.274;2024-02-21T11:10:19;8.80;;;1.70;;
49123;SDS011;48506;48.202;16.274;2024-02-21T11:12:47;7.70;;;1.77;;
49123;SDS011;48506;48.202;16.274;2024-02-21T11:15:13;3.90;;;1.38;;
49123;SDS011;48506;48.202;16.274;2024-02-21T11:17:40;4.43;;;1.45;;
49123;SDS011;48506;48.202;16.274;2024-02-21T11:20:12;5.70;;;1.50;;
49123;SDS011;48506;48.202;16.274;2024-02-21T11:22:42;15.25;;;2.38;;
49123;SDS011;48506;48.202;16.274;2024-02-21T11:25:08;12.77;;;2.88;;
49123;SDS011;48506;48.202;16.274;2024-02-21T11:27:37;5.70;;;1.40;;
49123;SDS011;48506;48.202;16.274;2024-02-21T11:30:04;7.40;;;1.60;;
49123;SDS011;48506;48.202;16.274;2024-02-21T11:32:31;8.10;;;3.22;;
49123;SDS011;48506;48.202;16.274;2024-02-21T11:37:26;7.20;;;1.57;;
49123;SDS011;48506;48.202;16.274;2024-02-21T11:39:57;9.07;;;1.70;;
49123;SDS011;48506;48.202;16.274;2024-02-21T11:42:26;7.93;;;1.55;;
49123;SDS011;48506;48.202;16.274;2024-02-21T11:44:54;4.28;;;1.42;;
49123;SDS011;48506;48.202;16.274;2024-02-21T11:47:24;5.75;;;2.00;;
49123;SDS011;48506;48.202;16.274;2024-02-21T11:49:50;6.80;;;1.77;;
49123;SDS011;48506;48.202;16.274;2024-02-21T11:52:23;5.97;;;1.63;;
49123;SDS011;48506;48.202;16.274;2024-02-21T11:54:50;5.22;;;1.30;;
49123;SDS011;48506;48.202;16.274;2024-02-21T11:57:22;5.35;;;1.60;;
49123;SDS011;48506;48.202;16.274;2024-02-21T11:59:48;4.75;;;1.83;;
49123;SDS011;48506;48.202;16.274;2024-02-21T12:02:17;3.05;;;1.63;;
49123;SDS011;48506;48.202;16.274;2024-02-21T12:04:44;5.60;;;1.65;;
49123;SDS011;48506;48.202;16.274;2024-02-21T12:07:10;8.77;;;2.30;;
49123;SDS011;48506;48.202;16.274;2024-02-21T12:09:36;5.80;;;1.65;;
49123;SDS011;48506;48.202;16.274;2024-02-21T12:12:03;6.32;;;1.63;;
49123;SDS011;48506;48.202;16.274;2024-02-21T12:14:31;8.95;;;2.13;;
49123;SDS011;48506;48.202;16.274;2024-02-21T12:16:59;5.93;;;1.70;;
49123;SDS011;48506;48.202;16.274;2024-02-21T12:19:28;7.38;;;1.45;;
49123;SDS011;48506;48.202;16.274;2024-02-21T12:21:56;7.30;;;2.45;;
49123;SDS011;48506;48.202;16.274;2024-02-21T12:24:26;10.85;;;2.08;;
49123;SDS011;48506;48.202;16.274;2024-02-21T12:26:54;7.05;;;1.38;;
49123;SDS011;48506;48.202;16.274;2024-02-21T12:29:22;5.47;;;2.03;;
49123;SDS011;48506;48.202;16.274;2024-02-21T12:31:50;7.50;;;2.00;;
49123;SDS011;48506;48.202;16.274;2024-02-21T12:34:16;6.75;;;2.15;;
49123;SDS011;48506;48.202;16.274;2024-02-21T12:36:43;7.95;;;1.95;;
49123;SDS011;48506;48.202;16.274;2024-02-21T12:39:12;6.53;;;1.70;;
49123;SDS011;48506;48.202;16.274;2024-02-21T12:41:38;5.82;;;1.50;;
49123;SDS011;48506;48.202;16.274;2024-02-21T12:44:06;5.57;;;1.60;;
49123;SDS011;48506;48.202;16.274;2024-02-21T12:46:33;5.85;;;1.70;;
49123;SDS011;48506;48.202;16.274;2024-02-21T12:49:00;9.85;;;1.70;;
49123;SDS011;48506;48.202;16.274;2024-02-21T12:51:29;3.70;;;1.92;;
49123;SDS011;48506;48.202;16.274;2024-02-21T12:53:59;5.72;;;1.67;;
49123;SDS011;48506;48.202;16.274;2024-02-21T12:56:26;4.53;;;1.52;;
49123;SDS011;48506;48.202;16.274;2024-02-21T12:58:56;4.90;;;1.67;;
49123;SDS011;48506;48.202;16.274;2024-02-21T13:01:22;5.18;;;1.35;;
49123;SDS011;48506;48.202;16.274;2024-02-21T13:03:48;7.30;;;1.85;;
49123;SDS011;48506;48.202;16.274;2024-02-21T13:06:14;10.30;;;2.17;;
49123;SDS011;48506;48.202;16.274;2024-02-21T13:08:40;9.77;;;2.22;;
49123;SDS011;48506;48.202;16.274;2024-02-21T13:11:06;5.03;;;2.05;;
49123;SDS011;48506;48.202;16.274;2024-02-21T13:13:32;5.60;;;2.35;;
49123;SDS011;48506;48.202;16.274;2024-02-21T13:15:58;3.95;;;1.90;;
49123;SDS011;48506;48.202;16.274;2024-02-21T13:18:25;4.25;;;1.35;;
49123;SDS011;48506;48.202;16.274;2024-02-21T13:20:51;3.83;;;1.15;;
49123;SDS011;48506;48.202;16.274;2024-02-21T13:23:16;3.35;;;1.20;;
49123;SDS011;48506;48.202;16.274;2024-02-21T13:25:43;5.68;;;1.77;;
49123;SDS011;48506;48.202;16.274;2024-02-21T13:28:10;5.32;;;1.55;;
49123;SDS011;48506;48.202;16.274;2024-02-21T13:30:36;4.65;;;1.67;;
49123;SDS011;48506;48.202;16.274;2024-02-21T13:33:02;8.98;;;2.15;;
49123;SDS011;48506;48.202;16.274;2024-02-21T13:35:28;3.80;;;1.40;;
49123;SDS011;48506;48.202;16.274;2024-02-21T13:37:54;8.20;;;1.83;;
49123;SDS011;48506;48.202;16.274;2024-02-21T13:40:20;8.70;;;1.45;;
49123;SDS011;48506;48.202;16.274;2024-02-21T13:42:46;5.88;;;1.60;;
49123;SDS011;48506;48.202;16.274;2024-02-21T13:45:12;4.30;;;1.80;;
49123;SDS011;48506;48.202;16.274;2024-02-21T13:47:40;4.75;;;1.73;;
49123;SDS011;48506;48.202;16.274;2024-02-21T13:50:06;8.60;;;1.90;;
49123;SDS011;48506;48.202;16.274;2024-02-21T13:52:36;6.40;;;1.35;;
49123;SDS011;48506;48.202;16.274;2024-02-21T13:55:03;4.40;;;0.90;;
49123;SDS011;48506;48.202;16.274;2024-02-21T13:57:29;6.50;;;2.10;;
49123;SDS011;48506;48.202;16.274;2024-02-21T13:59:55;4.03;;;1.42;;
49123;SDS011;48506;48.202;16.274;2024-02-21T14:02:21;3.25;;;1.20;;
49123;SDS011;48506;48.202;16.274;2024-02-21T14:04:47;4.90;;;2.47;;
49123;SDS011;48506;48.202;16.274;2024-02-21T14:07:13;9.32;;;1.80;;
49123;SDS011;48506;48.202;16.274;2024-02-21T14:09:39;4.57;;;1.48;;
49123;SDS011;48506;48.202;16.274;2024-02-21T14:12:05;4.43;;;1.17;;
49123;SDS011;48506;48.202;16.274;2024-02-21T14:14:35;5.73;;;1.63;;
49123;SDS011;48506;48.202;16.274;2024-02-21T14:17:02;3.88;;;1.27;;
49123;SDS011;48506;48.202;16.274;2024-02-21T14:19:29;4.75;;;1.20;;
49123;SDS011;48506;48.202;16.274;2024-02-21T14:21:56;4.28;;;1.27;;
49123;SDS011;48506;48.202;16.274;2024-02-21T14:24:22;4.05;;;1.08;;
49123;SDS011;48506;48.202;16.274;2024-02-21T14:26:49;5.30;;;1.33;;
49123;SDS011;48506;48.202;16.274;2024-02-21T14:29:14;10.02;;;1.48;;
49123;SDS011;48506;48.202;16.274;2024-02-21T14:31:40;6.35;;;1.73;;
49123;SDS011;48506;48.202;16.274;2024-02-21T14:34:06;3.22;;;1.08;;
49123;SDS011;48506;48.202;16.274;2024-02-21T14:36:33;5.85;;;1.42;;
49123;SDS011;48506;48.202;16.274;2024-02-21T14:38:59;3.60;;;1.17;;
49123;SDS011;48506;48.202;16.274;2024-02-21T14:41:25;4.20;;;1.20;;
49123;SDS011;48506;48.202;16.274;2024-02-21T14:43:52;3.25;;;1.23;;